sensor_id;sensor_type;location;lat;lon;timestamp;P1;durP1;ratioP1;P2;durP2;ratioP2
50319;SDS011;36226;53.464;9.852;2023-03-23T00:04:30;12.23;;;7.47;;
50319;SDS011;36226;53.464;9.852;2023-03-23T00:06:56;12.63;;;8.30;;
50319;SDS011;36226;53.464;9.852;2023-03-23T00:09:21;13.45;;;8.30;;
50319;SDS011;36226;53.464;9.852;2023-03-23T00:11:49;13.73;;;8.27;;
50319;SDS011;36226;53.464;9.852;2023-03-23T00:14:15;13.32;;;8.93;;
50319;SDS011;36226;53.464;9.852;2023-03-23T00:16:41;14.32;;;8.70;;
50319;SDS011;36226;53.464;9.852;2023-03-23T00:19:08;12.95;;;8.68;;
50319;SDS011;36226;53.464;9.852;2023-03-23T00:21:40;15.00;;;8.60;;
50319;SDS011;36226;53.464;9.852;2023-03-23T00:24:16;13.75;;;8.40;;
50319;SDS011;36226;53.464;9.852;2023-03-23T00:26:43;17.17;;;9.30;;
50319;SDS011;36226;53.464;9.852;2023-03-23T00:29:12;19.38;;;10.10;;
50319;SDS011;36226;53.464;9.852;2023-03-23T00:31:38;14.30;;;9.55;;
50319;SDS011;36226;53.464;9.852;2023-03-23T00:46:53;15.88;;;9.68;;
50319;SDS011;36226;53.464;9.852;2023-03-23T00:49:21;20.90;;;11.57;;
50319;SDS011;36226;53.464;9.852;2023-03-23T00:51:50;19.17;;;10.90;;
50319;SDS011;36226;53.464;9.852;2023-03-23T00:54:20;16.77;;;10.38;;
50319;SDS011;36226;53.464;9.852;2023-03-23T00:56:46;19.35;;;10.93;;
50319;SDS011;36226;53.464;9.852;2023-03-23T00:59:11;16.17;;;11.40;;
50319;SDS011;36226;53.464;9.852;2023-03-23T01:01:37;17.20;;;11.00;;
50319;SDS011;36226;53.464;9.852;2023-03-23T01:04:03;19.48;;;11.48;;
50319;SDS011;36226;53.464;9.852;2023-03-23T01:06:32;21.30;;;11.50;;
50319;SDS011;36226;53.464;9.852;2023-03-23T01:09:00;19.27;;;11.65;;
50319;SDS011;36226;53.464;9.852;2023-03-23T01:11:28;17.63;;;11.50;;
50319;SDS011;36226;53.464;9.852;2023-03-23T01:13:53;19.73;;;11.43;;
50319;SDS011;36226;53.464;9.852;2023-03-23T01:16:19;17.98;;;11.77;;
50319;SDS011;36226;53.464;9.852;2023-03-23T01:18:44;17.80;;;11.23;;
50319;SDS011;36226;53.464;9.852;2023-03-23T01:21:11;17.50;;;11.98;;
50319;SDS011;36226;53.464;9.852;2023-03-23T01:23:39;21.75;;;12.30;;
50319;SDS011;36226;53.464;9.852;2023-03-23T01:26:05;19.10;;;12.13;;
50319;SDS011;36226;53.464;9.852;2023-03-23T01:28:32;21.17;;;11.60;;
50319;SDS011;36226;53.464;9.852;2023-03-23T01:31:05;19.15;;;11.88;;
50319;SDS011;36226;53.464;9.852;2023-03-23T01:33:33;20.35;;;12.15;;
50319;SDS011;36226;53.464;9.852;2023-03-23T01:36:02;18.77;;;12.50;;
50319;SDS011;36226;53.464;9.852;2023-03-23T01:38:28;20.10;;;13.02;;
50319;SDS011;36226;53.464;9.852;2023-03-23T01:40:54;20.77;;;11.95;;
50319;SDS011;36226;53.464;9.852;2023-03-23T05:07:00;16.23;;;10.48;;
50319;SDS011;36226;53.464;9.852;2023-03-23T05:09:25;15.48;;;9.75;;
50319;SDS011;36226;53.464;9.852;2023-03-23T05:11:51;13.82;;;10.00;;
50319;SDS011;36226;53.464;9.852;2023-03-23T05:14:16;15.02;;;10.07;;
50319;SDS011;36226;53.464;9.852;2023-03-23T05:16:41;14.43;;;9.20;;
50319;SDS011;36226;53.464;9.852;2023-03-23T05:19:07;15.30;;;9.45;;
50319;SDS011;36226;53.464;9.852;2023-03-23T05:21:33;14.82;;;9.35;;
50319;SDS011;36226;53.464;9.852;2023-03-23T05:23:59;14.70;;;9.20;;
50319;SDS011;36226;53.464;9.852;2023-03-23T05:26:26;14.60;;;8.40;;
50319;SDS011;36226;53.464;9.852;2023-03-23T05:28:54;11.52;;;8.20;;
50319;SDS011;36226;53.464;9.852;2023-03-23T05:31:20;15.32;;;8.60;;
50319;SDS011;36226;53.464;9.852;2023-03-23T05:33:46;13.13;;;8.60;;
50319;SDS011;36226;53.464;9.852;2023-03-23T05:36:11;13.02;;;7.97;;
50319;SDS011;36226;53.464;9.852;2023-03-23T05:38:38;11.45;;;7.88;;
50319;SDS011;36226;53.464;9.852;2023-03-23T05:41:07;10.43;;;7.95;;
50319;SDS011;36226;53.464;9.852;2023-03-23T05:43:33;13.38;;;7.85;;
50319;SDS011;36226;53.464;9.852;2023-03-23T05:45:58;10.73;;;7.53;;
50319;SDS011;36226;53.464;9.852;2023-03-23T05:48:24;12.00;;;7.55;;
50319;SDS011;36226;53.464;9.852;2023-03-23T05:50:49;11.45;;;6.55;;
50319;SDS011;36226;53.464;9.852;2023-03-23T05:53:15;10.60;;;6.55;;
50319;SDS011;36226;53.464;9.852;2023-03-23T05:55:41;9.93;;;6.50;;
50319;SDS011;36226;53.464;9.852;2023-03-23T05:58:06;8.50;;;6.32;;
50319;SDS011;36226;53.464;9.852;2023-03-23T06:00:31;10.57;;;6.40;;
50319;SDS011;36226;53.464;9.852;2023-03-23T06:02:57;14.05;;;6.53;;
50319;SDS011;36226;53.464;9.852;2023-03-23T06:05:23;10.82;;;6.68;;
50319;SDS011;36226;53.464;9.852;2023-03-23T06:07:50;9.85;;;5.90;;
50319;SDS011;36226;53.464;9.852;2023-03-23T06:10:16;11.20;;;6.30;;
50319;SDS011;36226;53.464;9.852;2023-03-23T06:12:41;6.97;;;5.40;;
50319;SDS011;36226;53.464;9.852;2023-03-23T06:15:07;9.63;;;6.03;;
50319;SDS011;36226;53.464;9.852;2023-03-23T06:17:34;9.80;;;5.57;;
50319;SDS011;36226;53.464;9.852;2023-03-23T06:20:01;11.52;;;5.93;;
50319;SDS011;36226;53.464;9.852;2023-03-23T06:22:29;8.10;;;5.03;;
50319;SDS011;36226;53.464;9.852;2023-03-23T06:24:54;8.07;;;4.68;;
50319;SDS011;36226;53.464;9.852;2023-03-23T06:27:22;6.80;;;5.03;;
50319;SDS011;36226;53.464;9.852;2023-03-23T06:29:48;7.70;;;4.75;;
50319;SDS011;36226;53.464;9.852;2023-03-23T06:32:13;8.30;;;5.10;;
50319;SDS011;36226;53.464;9.852;2023-03-23T06:34:40;7.80;;;4.78;;
50319;SDS011;36226;53.464;9.852;2023-03-23T06:37:09;8.32;;;4.72;;
50319;SDS011;36226;53.464;9.852;2023-03-23T06:39:35;6.60;;;4.70;;
50319;SDS011;36226;53.464;9.852;2023-03-23T06:42:02;7.85;;;4.68;;
50319;SDS011;36226;53.464;9.852;2023-03-23T06:44:28;9.63;;;4.63;;
50319;SDS011;36226;53.464;9.852;2023-03-23T06:46:53;7.50;;;3.85;;
50319;SDS011;36226;53.464;9.852;2023-03-23T06:49:19;7.40;;;4.25;;
50319;SDS011;36226;53.464;9.852;2023-03-23T06:51:44;7.10;;;3.88;;
50319;SDS011;36226;53.464;9.852;2023-03-23T06:54:10;6.45;;;3.70;;
50319;SDS011;36226;53.464;9.852;2023-03-23T06:56:35;5.95;;;4.10;;
50319;SDS011;36226;53.464;9.852;2023-03-23T06:59:00;8.73;;;3.97;;
50319;SDS011;36226;53.464;9.852;2023-03-23T07:01:26;6.70;;;4.05;;
50319;SDS011;36226;53.464;9.852;2023-03-23T07:03:53;5.82;;;3.80;;
50319;SDS011;36226;53.464;9.852;2023-03-23T07:06:20;5.82;;;3.45;;
50319;SDS011;36226;53.464;9.852;2023-03-23T07:08:45;4.65;;;3.33;;
50319;SDS011;36226;53.464;9.852;2023-03-23T07:11:10;5.18;;;3.40;;
50319;SDS011;36226;53.464;9.852;2023-03-23T07:13:36;6.32;;;3.22;;
50319;SDS011;36226;53.464;9.852;2023-03-23T07:16:04;10.20;;;3.63;;
50319;SDS011;36226;53.464;9.852;2023-03-23T07:18:30;10.30;;;3.58;;
50319;SDS011;36226;53.464;9.852;2023-03-23T07:20:56;4.15;;;3.03;;
50319;SDS011;36226;53.464;9.852;2023-03-23T07:23:21;6.43;;;3.47;;
50319;SDS011;36226;53.464;9.852;2023-03-23T07:25:46;4.28;;;3.13;;
50319;SDS011;36226;53.464;9.852;2023-03-23T07:28:13;5.22;;;3.20;;
50319;SDS011;36226;53.464;9.852;2023-03-23T07:30:42;5.85;;;3.35;;
50319;SDS011;36226;53.464;9.852;2023-03-23T07:33:10;5.50;;;3.45;;
50319;SDS011;36226;53.464;9.852;2023-03-23T07:35:36;5.22;;;3.08;;
50319;SDS011;36226;53.464;9.852;2023-03-23T07:38:02;4.53;;;3.17;;
50319;SDS011;36226;53.464;9.852;2023-03-23T07:40:29;6.93;;;3.25;;
50319;SDS011;36226;53.464;9.852;2023-03-23T07:42:58;4.63;;;3.15;;
50319;SDS011;36226;53.464;9.852;2023-03-23T07:45:24;5.35;;;3.42;;
50319;SDS011;36226;53.464;9.852;2023-03-23T07:47:49;4.93;;;4.10;;
50319;SDS011;36226;53.464;9.852;2023-03-23T07:50:15;10.30;;;4.10;;
50319;SDS011;36226;53.464;9.852;2023-03-23T07:52:41;5.22;;;4.05;;
50319;SDS011;36226;53.464;9.852;2023-03-23T07:55:07;5.63;;;3.70;;
50319;SDS011;36226;53.464;9.852;2023-03-23T07:57:36;4.82;;;4.03;;
50319;SDS011;36226;53.464;9.852;2023-03-23T08:00:03;7.15;;;4.40;;
50319;SDS011;36226;53.464;9.852;2023-03-23T08:02:36;6.03;;;4.43;;
50319;SDS011;36226;53.464;9.852;2023-03-23T08:05:01;6.72;;;4.55;;
50319;SDS011;36226;53.464;9.852;2023-03-23T08:07:27;8.70;;;4.35;;
50319;SDS011;36226;53.464;9.852;2023-03-23T08:09:52;7.18;;;4.80;;
50319;SDS011;36226;53.464;9.852;2023-03-23T08:12:17;7.60;;;5.05;;
50319;SDS011;36226;53.464;9.852;2023-03-23T08:14:43;8.80;;;4.90;;
50319;SDS011;36226;53.464;9.852;2023-03-23T08:17:08;9.13;;;5.57;;
50319;SDS011;36226;53.464;9.852;2023-03-23T08:19:34;7.97;;;5.50;;
50319;SDS011;36226;53.464;9.852;2023-03-23T08:22:02;7.53;;;5.25;;
50319;SDS011;36226;53.464;9.852;2023-03-23T08:24:28;8.15;;;5.28;;
50319;SDS011;36226;53.464;9.852;2023-03-23T08:26:53;6.63;;;5.13;;
50319;SDS011;36226;53.464;9.852;2023-03-23T08:29:18;8.90;;;5.95;;
50319;SDS011;36226;53.464;9.852;2023-03-23T08:31:44;7.93;;;5.88;;
50319;SDS011;36226;53.464;9.852;2023-03-23T08:34:09;8.55;;;5.43;;
50319;SDS011;36226;53.464;9.852;2023-03-23T08:36:35;7.97;;;4.65;;
50319;SDS011;36226;53.464;9.852;2023-03-23T08:39:02;6.78;;;3.88;;
50319;SDS011;36226;53.464;9.852;2023-03-23T08:41:30;8.15;;;3.97;;
50319;SDS011;36226;53.464;9.852;2023-03-23T08:43:56;5.78;;;3.80;;
50319;SDS011;36226;53.464;9.852;2023-03-23T08:46:21;7.05;;;3.50;;
50319;SDS011;36226;53.464;9.852;2023-03-23T08:48:47;5.60;;;3.17;;
50319;SDS011;36226;53.464;9.852;2023-03-23T08:51:12;4.95;;;2.72;;
50319;SDS011;36226;53.464;9.852;2023-03-23T08:53:38;5.80;;;2.35;;
50319;SDS011;36226;53.464;9.852;2023-03-23T08:56:08;4.50;;;1.88;;
50319;SDS011;36226;53.464;9.852;2023-03-23T08:58:35;3.85;;;1.60;;
50319;SDS011;36226;53.464;9.852;2023-03-23T09:01:02;4.82;;;1.48;;
50319;SDS011;36226;53.464;9.852;2023-03-23T09:03:28;8.23;;;1.65;;
50319;SDS011;36226;53.464;9.852;2023-03-23T09:05:53;6.45;;;1.17;;
50319;SDS011;36226;53.464;9.852;2023-03-23T09:08:19;4.05;;;1.50;;
50319;SDS011;36226;53.464;9.852;2023-03-23T09:10:44;3.28;;;1.10;;
50319;SDS011;36226;53.464;9.852;2023-03-23T09:13:10;4.05;;;1.10;;
50319;SDS011;36226;53.464;9.852;2023-03-23T09:15:35;5.10;;;1.30;;
50319;SDS011;36226;53.464;9.852;2023-03-23T09:18:01;7.13;;;1.98;;
50319;SDS011;36226;53.464;9.852;2023-03-23T09:20:27;4.78;;;1.30;;
50319;SDS011;36226;53.464;9.852;2023-03-23T09:22:53;4.88;;;1.25;;
50319;SDS011;36226;53.464;9.852;2023-03-23T09:25:21;6.60;;;1.45;;
50319;SDS011;36226;53.464;9.852;2023-03-23T09:27:48;8.50;;;1.90;;
50319;SDS011;36226;53.464;9.852;2023-03-23T09:30:18;6.38;;;1.38;;
50319;SDS011;36226;53.464;9.852;2023-03-23T09:32:44;8.75;;;1.27;;
50319;SDS011;36226;53.464;9.852;2023-03-23T09:35:10;7.05;;;1.63;;
50319;SDS011;36226;53.464;9.852;2023-03-23T09:37:39;6.00;;;1.25;;
50319;SDS011;36226;53.464;9.852;2023-03-23T09:40:06;9.15;;;1.83;;
50319;SDS011;36226;53.464;9.852;2023-03-23T09:50:40;7.93;;;1.17;;
50319;SDS011;36226;53.464;9.852;2023-03-23T09:53:31;5.85;;;1.40;;
50319;SDS011;36226;53.464;9.852;2023-03-23T09:56:01;6.50;;;1.55;;
50319;SDS011;36226;53.464;9.852;2023-03-23T09:58:29;4.95;;;1.20;;
50319;SDS011;36226;53.464;9.852;2023-03-23T10:01:00;8.45;;;1.45;;
50319;SDS011;36226;53.464;9.852;2023-03-23T10:03:34;6.68;;;1.55;;
50319;SDS011;36226;53.464;9.852;2023-03-23T10:06:04;7.80;;;1.50;;
50319;SDS011;36226;53.464;9.852;2023-03-23T10:08:30;7.00;;;1.42;;
50319;SDS011;36226;53.464;9.852;2023-03-23T10:10:59;9.40;;;1.83;;
50319;SDS011;36226;53.464;9.852;2023-03-23T10:16:24;8.10;;;1.88;;
50319;SDS011;36226;53.464;9.852;2023-03-23T10:19:11;8.13;;;1.20;;
50319;SDS011;36226;53.464;9.852;2023-03-23T10:21:42;6.53;;;2.42;;
50319;SDS011;36226;53.464;9.852;2023-03-23T10:24:13;12.68;;;1.70;;
50319;SDS011;36226;53.464;9.852;2023-03-23T10:26:44;10.32;;;1.73;;
50319;SDS011;36226;53.464;9.852;2023-03-23T10:29:47;5.28;;;1.35;;
50319;SDS011;36226;53.464;9.852;2023-03-23T10:32:18;7.43;;;1.67;;
50319;SDS011;36226;53.464;9.852;2023-03-23T10:37:27;6.57;;;2.13;;
50319;SDS011;36226;53.464;9.852;2023-03-23T10:39:58;6.93;;;1.48;;
50319;SDS011;36226;53.464;9.852;2023-03-23T10:42:29;6.50;;;1.63;;
50319;SDS011;36226;53.464;9.852;2023-03-23T10:44:57;7.25;;;1.83;;
50319;SDS011;36226;53.464;9.852;2023-03-23T10:47:24;11.68;;;1.77;;
50319;SDS011;36226;53.464;9.852;2023-03-23T10:49:56;7.35;;;1.55;;
50319;SDS011;36226;53.464;9.852;2023-03-23T10:57:46;6.78;;;1.50;;
50319;SDS011;36226;53.464;9.852;2023-03-23T11:00:25;7.78;;;1.83;;
50319;SDS011;36226;53.464;9.852;2023-03-23T11:05:31;10.25;;;2.00;;
50319;SDS011;36226;53.464;9.852;2023-03-23T11:08:10;7.95;;;1.85;;
50319;SDS011;36226;53.464;9.852;2023-03-23T11:10:39;7.22;;;1.67;;
50319;SDS011;36226;53.464;9.852;2023-03-23T11:13:13;10.95;;;2.08;;
50319;SDS011;36226;53.464;9.852;2023-03-23T11:15:41;9.10;;;2.40;;
50319;SDS011;36226;53.464;9.852;2023-03-23T11:18:35;11.73;;;2.20;;
50319;SDS011;36226;53.464;9.852;2023-03-23T11:21:04;9.65;;;2.30;;
50319;SDS011;36226;53.464;9.852;2023-03-23T11:23:34;6.28;;;2.17;;
50319;SDS011;36226;53.464;9.852;2023-03-23T11:28:56;9.02;;;2.35;;
50319;SDS011;36226;53.464;9.852;2023-03-23T11:31:50;9.35;;;2.67;;
50319;SDS011;36226;53.464;9.852;2023-03-23T11:34:30;11.40;;;2.75;;
50319;SDS011;36226;53.464;9.852;2023-03-23T11:42:23;10.45;;;2.72;;
50319;SDS011;36226;53.464;9.852;2023-03-23T11:44:54;9.52;;;2.75;;
50319;SDS011;36226;53.464;9.852;2023-03-23T11:47:43;6.82;;;2.60;;
50319;SDS011;36226;53.464;9.852;2023-03-23T11:50:18;6.75;;;2.33;;
50319;SDS011;36226;53.464;9.852;2023-03-23T11:55:50;13.52;;;2.97;;
50319;SDS011;36226;53.464;9.852;2023-03-23T11:58:16;6.05;;;2.30;;
50319;SDS011;36226;53.464;9.852;2023-03-23T12:00:48;8.10;;;2.80;;
50319;SDS011;36226;53.464;9.852;2023-03-23T12:03:21;9.98;;;2.50;;
50319;SDS011;36226;53.464;9.852;2023-03-23T12:06:11;8.93;;;2.50;;
50319;SDS011;36226;53.464;9.852;2023-03-23T12:11:40;8.80;;;2.55;;
50319;SDS011;36226;53.464;9.852;2023-03-23T12:17:03;11.63;;;2.58;;
50319;SDS011;36226;53.464;9.852;2023-03-23T12:19:39;7.82;;;2.30;;
50319;SDS011;36226;53.464;9.852;2023-03-23T12:22:23;9.23;;;2.40;;
50319;SDS011;36226;53.464;9.852;2023-03-23T12:32:41;8.13;;;2.08;;
50319;SDS011;36226;53.464;9.852;2023-03-23T12:48:28;8.27;;;2.50;;
50319;SDS011;36226;53.464;9.852;2023-03-23T12:53:32;10.30;;;2.45;;
50319;SDS011;36226;53.464;9.852;2023-03-23T12:56:17;7.80;;;2.90;;
50319;SDS011;36226;53.464;9.852;2023-03-23T12:58:50;7.32;;;2.35;;
50319;SDS011;36226;53.464;9.852;2023-03-23T13:01:24;8.63;;;2.05;;
50319;SDS011;36226;53.464;9.852;2023-03-23T13:04:09;9.05;;;2.45;;
50319;SDS011;36226;53.464;9.852;2023-03-23T13:06:41;6.55;;;2.85;;
50319;SDS011;36226;53.464;9.852;2023-03-23T13:11:40;11.07;;;3.60;;
50319;SDS011;36226;53.464;9.852;2023-03-23T13:24:32;6.00;;;2.10;;
50319;SDS011;36226;53.464;9.852;2023-03-23T13:26:59;5.65;;;2.17;;
50319;SDS011;36226;53.464;9.852;2023-03-23T13:29:26;6.38;;;2.33;;
50319;SDS011;36226;53.464;9.852;2023-03-23T13:32:03;8.57;;;2.10;;
50319;SDS011;36226;53.464;9.852;2023-03-23T13:34:30;4.70;;;1.63;;
50319;SDS011;36226;53.464;9.852;2023-03-23T13:39:29;4.15;;;1.60;;
50319;SDS011;36226;53.464;9.852;2023-03-23T13:49:56;4.57;;;1.65;;
50319;SDS011;36226;53.464;9.852;2023-03-23T14:00:34;3.53;;;1.23;;
50319;SDS011;36226;53.464;9.852;2023-03-23T14:03:24;2.45;;;1.30;;
50319;SDS011;36226;53.464;9.852;2023-03-23T14:05:59;4.03;;;1.10;;
50319;SDS011;36226;53.464;9.852;2023-03-23T14:10:57;4.68;;;1.20;;
50319;SDS011;36226;53.464;9.852;2023-03-23T14:13:31;4.25;;;1.10;;
50319;SDS011;36226;53.464;9.852;2023-03-23T14:15:59;2.80;;;1.25;;
50319;SDS011;36226;53.464;9.852;2023-03-23T14:18:30;4.20;;;1.20;;
50319;SDS011;36226;53.464;9.852;2023-03-23T14:21:00;5.88;;;1.20;;
50319;SDS011;36226;53.464;9.852;2023-03-23T14:23:26;4.57;;;1.00;;
50319;SDS011;36226;53.464;9.852;2023-03-23T14:25:55;4.40;;;0.95;;
50319;SDS011;36226;53.464;9.852;2023-03-23T14:28:22;6.75;;;1.30;;
50319;SDS011;36226;53.464;9.852;2023-03-23T14:30:51;2.47;;;1.00;;
50319;SDS011;36226;53.464;9.852;2023-03-23T14:33:17;5.65;;;1.30;;
50319;SDS011;36226;53.464;9.852;2023-03-23T14:35:44;5.18;;;1.00;;
50319;SDS011;36226;53.464;9.852;2023-03-23T14:38:14;4.20;;;0.80;;
50319;SDS011;36226;53.464;9.852;2023-03-23T14:40:41;2.40;;;0.95;;
50319;SDS011;36226;53.464;9.852;2023-03-23T14:43:07;2.72;;;0.80;;
50319;SDS011;36226;53.464;9.852;2023-03-23T14:45:34;4.93;;;0.95;;
50319;SDS011;36226;53.464;9.852;2023-03-23T14:48:02;6.57;;;1.45;;
50319;SDS011;36226;53.464;9.852;2023-03-23T14:53:24;4.40;;;1.30;;
50319;SDS011;36226;53.464;9.852;2023-03-23T14:56:13;5.95;;;1.23;;
50319;SDS011;36226;53.464;9.852;2023-03-23T14:58:46;5.80;;;1.40;;
50319;SDS011;36226;53.464;9.852;2023-03-23T15:01:19;5.93;;;1.35;;
50319;SDS011;36226;53.464;9.852;2023-03-23T15:03:51;4.13;;;1.40;;
50319;SDS011;36226;53.464;9.852;2023-03-23T15:06:19;3.63;;;1.10;;
50319;SDS011;36226;53.464;9.852;2023-03-23T15:08:47;4.80;;;1.23;;
50319;SDS011;36226;53.464;9.852;2023-03-23T15:13:51;3.65;;;1.50;;
50319;SDS011;36226;53.464;9.852;2023-03-23T15:16:25;4.30;;;1.40;;
50319;SDS011;36226;53.464;9.852;2023-03-23T15:19:05;3.05;;;1.30;;
50319;SDS011;36226;53.464;9.852;2023-03-23T15:21:32;5.97;;;1.35;;
50319;SDS011;36226;53.464;9.852;2023-03-23T15:23:59;2.72;;;1.30;;
50319;SDS011;36226;53.464;9.852;2023-03-23T15:26:33;7.05;;;1.63;;
50319;SDS011;36226;53.464;9.852;2023-03-23T15:31:49;3.75;;;1.30;;
50319;SDS011;36226;53.464;9.852;2023-03-23T15:34:37;7.80;;;1.27;;
50319;SDS011;36226;53.464;9.852;2023-03-23T15:37:05;4.45;;;0.93;;
50319;SDS011;36226;53.464;9.852;2023-03-23T15:39:31;3.65;;;1.15;;
50319;SDS011;36226;53.464;9.852;2023-03-23T15:41:58;4.90;;;1.10;;
50319;SDS011;36226;53.464;9.852;2023-03-23T15:44:31;8.02;;;1.27;;
50319;SDS011;36226;53.464;9.852;2023-03-23T15:47:02;4.95;;;0.98;;
50319;SDS011;36226;53.464;9.852;2023-03-23T15:49:29;5.38;;;0.80;;
50319;SDS011;36226;53.464;9.852;2023-03-23T15:51:54;5.38;;;0.98;;
50319;SDS011;36226;53.464;9.852;2023-03-23T15:54:20;3.55;;;1.13;;
50319;SDS011;36226;53.464;9.852;2023-03-23T15:56:45;3.50;;;1.20;;
50319;SDS011;36226;53.464;9.852;2023-03-23T15:59:11;3.65;;;0.80;;
50319;SDS011;36226;53.464;9.852;2023-03-23T16:01:38;2.83;;;0.70;;
50319;SDS011;36226;53.464;9.852;2023-03-23T16:04:08;4.32;;;1.02;;
50319;SDS011;36226;53.464;9.852;2023-03-23T16:06:39;6.28;;;1.00;;
50319;SDS011;36226;53.464;9.852;2023-03-23T16:09:05;5.03;;;1.00;;
50319;SDS011;36226;53.464;9.852;2023-03-23T16:11:31;3.90;;;0.90;;
50319;SDS011;36226;53.464;9.852;2023-03-23T16:13:57;2.78;;;1.08;;
50319;SDS011;36226;53.464;9.852;2023-03-23T16:18:48;4.65;;;1.08;;
50319;SDS011;36226;53.464;9.852;2023-03-23T16:21:14;6.88;;;1.27;;
50319;SDS011;36226;53.464;9.852;2023-03-23T16:23:39;6.03;;;1.20;;
50319;SDS011;36226;53.464;9.852;2023-03-23T16:26:08;7.18;;;1.42;;
50319;SDS011;36226;53.464;9.852;2023-03-23T16:28:33;5.93;;;1.52;;
50319;SDS011;36226;53.464;9.852;2023-03-23T16:30:59;7.57;;;2.15;;
50319;SDS011;36226;53.464;9.852;2023-03-23T16:33:24;4.65;;;1.40;;
50319;SDS011;36226;53.464;9.852;2023-03-23T16:35:50;4.90;;;1.30;;
50319;SDS011;36226;53.464;9.852;2023-03-23T16:38:15;8.20;;;1.20;;
50319;SDS011;36226;53.464;9.852;2023-03-23T16:40:41;4.25;;;0.90;;
50319;SDS011;36226;53.464;9.852;2023-03-23T16:43:08;3.72;;;1.10;;
50319;SDS011;36226;53.464;9.852;2023-03-23T16:45:33;3.17;;;0.90;;
50319;SDS011;36226;53.464;9.852;2023-03-23T16:47:59;2.47;;;0.65;;
50319;SDS011;36226;53.464;9.852;2023-03-23T16:50:26;4.20;;;0.88;;
50319;SDS011;36226;53.464;9.852;2023-03-23T16:52:53;3.15;;;0.93;;
50319;SDS011;36226;53.464;9.852;2023-03-23T16:55:19;3.40;;;1.20;;
50319;SDS011;36226;53.464;9.852;2023-03-23T16:57:44;4.20;;;1.10;;
50319;SDS011;36226;53.464;9.852;2023-03-23T17:00:10;2.10;;;0.90;;
50319;SDS011;36226;53.464;9.852;2023-03-23T17:02:40;4.20;;;1.00;;
50319;SDS011;36226;53.464;9.852;2023-03-23T17:05:06;5.32;;;1.15;;
50319;SDS011;36226;53.464;9.852;2023-03-23T17:07:32;4.05;;;1.15;;
50319;SDS011;36226;53.464;9.852;2023-03-23T17:09:58;5.80;;;1.30;;
50319;SDS011;36226;53.464;9.852;2023-03-23T17:12:24;3.42;;;1.10;;
50319;SDS011;36226;53.464;9.852;2023-03-23T17:14:50;2.83;;;1.30;;
50319;SDS011;36226;53.464;9.852;2023-03-23T17:17:15;6.32;;;1.15;;
50319;SDS011;36226;53.464;9.852;2023-03-23T17:19:40;2.88;;;1.20;;
50319;SDS011;36226;53.464;9.852;2023-03-23T17:22:06;5.35;;;1.20;;
50319;SDS011;36226;53.464;9.852;2023-03-23T17:24:32;6.75;;;1.23;;
50319;SDS011;36226;53.464;9.852;2023-03-23T17:26:57;4.80;;;1.40;;
50319;SDS011;36226;53.464;9.852;2023-03-23T17:29:22;3.65;;;1.35;;
50319;SDS011;36226;53.464;9.852;2023-03-23T17:31:48;7.03;;;1.35;;
50319;SDS011;36226;53.464;9.852;2023-03-23T17:34:14;3.90;;;1.20;;
50319;SDS011;36226;53.464;9.852;2023-03-23T17:36:39;4.40;;;1.17;;
50319;SDS011;36226;53.464;9.852;2023-03-23T17:39:04;3.03;;;1.40;;
50319;SDS011;36226;53.464;9.852;2023-03-23T17:41:30;4.32;;;1.40;;
50319;SDS011;36226;53.464;9.852;2023-03-23T17:43:55;6.35;;;1.17;;
50319;SDS011;36226;53.464;9.852;2023-03-23T17:46:21;6.53;;;2.00;;
50319;SDS011;36226;53.464;9.852;2023-03-23T17:48:46;5.15;;;1.40;;
50319;SDS011;36226;53.464;9.852;2023-03-23T17:51:12;4.65;;;1.40;;
50319;SDS011;36226;53.464;9.852;2023-03-23T17:53:38;6.47;;;1.48;;
50319;SDS011;36226;53.464;9.852;2023-03-23T17:56:04;5.68;;;1.17;;
50319;SDS011;36226;53.464;9.852;2023-03-23T17:58:30;4.78;;;1.20;;
50319;SDS011;36226;53.464;9.852;2023-03-23T18:00:56;5.28;;;1.40;;
50319;SDS011;36226;53.464;9.852;2023-03-23T18:03:21;9.82;;;1.20;;
50319;SDS011;36226;53.464;9.852;2023-03-23T18:05:56;7.22;;;2.08;;
50319;SDS011;36226;53.464;9.852;2023-03-23T18:08:21;6.55;;;1.88;;
50319;SDS011;36226;53.464;9.852;2023-03-23T18:10:49;5.53;;;1.70;;
50319;SDS011;36226;53.464;9.852;2023-03-23T18:13:15;9.38;;;1.70;;
50319;SDS011;36226;53.464;9.852;2023-03-23T18:15:42;5.20;;;1.40;;
50319;SDS011;36226;53.464;9.852;2023-03-23T18:18:08;4.47;;;1.40;;
50319;SDS011;36226;53.464;9.852;2023-03-23T18:20:35;6.05;;;1.40;;
50319;SDS011;36226;53.464;9.852;2023-03-23T18:23:00;5.90;;;1.40;;
50319;SDS011;36226;53.464;9.852;2023-03-23T18:25:27;9.02;;;1.83;;
50319;SDS011;36226;53.464;9.852;2023-03-23T18:27:53;3.88;;;1.38;;
50319;SDS011;36226;53.464;9.852;2023-03-23T18:30:18;5.72;;;1.63;;
50319;SDS011;36226;53.464;9.852;2023-03-23T18:32:44;9.30;;;1.88;;
50319;SDS011;36226;53.464;9.852;2023-03-23T18:35:10;4.40;;;1.50;;
50319;SDS011;36226;53.464;9.852;2023-03-23T18:37:36;4.38;;;1.90;;
50319;SDS011;36226;53.464;9.852;2023-03-23T18:40:04;5.97;;;1.48;;
50319;SDS011;36226;53.464;9.852;2023-03-23T18:42:30;4.43;;;1.40;;
50319;SDS011;36226;53.464;9.852;2023-03-23T18:44:56;3.72;;;1.10;;
50319;SDS011;36226;53.464;9.852;2023-03-23T18:47:24;3.67;;;1.15;;
50319;SDS011;36226;53.464;9.852;2023-03-23T18:49:51;3.38;;;1.60;;
50319;SDS011;36226;53.464;9.852;2023-03-23T18:52:19;7.30;;;2.45;;
50319;SDS011;36226;53.464;9.852;2023-03-23T18:54:46;6.55;;;1.52;;
50319;SDS011;36226;53.464;9.852;2023-03-23T18:57:11;3.85;;;1.30;;
50319;SDS011;36226;53.464;9.852;2023-03-23T18:59:37;3.28;;;1.48;;
50319;SDS011;36226;53.464;9.852;2023-03-23T19:04:36;3.65;;;1.63;;
50319;SDS011;36226;53.464;9.852;2023-03-23T19:07:07;4.60;;;1.40;;
50319;SDS011;36226;53.464;9.852;2023-03-23T19:09:33;3.92;;;1.50;;
50319;SDS011;36226;53.464;9.852;2023-03-23T19:11:59;3.97;;;1.50;;
50319;SDS011;36226;53.464;9.852;2023-03-23T19:14:25;4.05;;;1.33;;
50319;SDS011;36226;53.464;9.852;2023-03-23T19:16:50;5.40;;;1.50;;
50319;SDS011;36226;53.464;9.852;2023-03-23T19:19:16;3.65;;;1.48;;
50319;SDS011;36226;53.464;9.852;2023-03-23T19:21:42;3.40;;;1.63;;
50319;SDS011;36226;53.464;9.852;2023-03-23T19:24:08;5.93;;;1.75;;
50319;SDS011;36226;53.464;9.852;2023-03-23T19:26:34;8.95;;;1.80;;
50319;SDS011;36226;53.464;9.852;2023-03-23T19:29:02;4.43;;;1.80;;
50319;SDS011;36226;53.464;9.852;2023-03-23T19:31:28;5.47;;;1.70;;
50319;SDS011;36226;53.464;9.852;2023-03-23T19:33:54;4.68;;;1.73;;
50319;SDS011;36226;53.464;9.852;2023-03-23T19:36:20;5.82;;;1.80;;
50319;SDS011;36226;53.464;9.852;2023-03-23T19:38:46;4.10;;;1.60;;
50319;SDS011;36226;53.464;9.852;2023-03-23T19:41:11;7.35;;;1.90;;
50319;SDS011;36226;53.464;9.852;2023-03-23T19:43:37;6.25;;;1.70;;
50319;SDS011;36226;53.464;9.852;2023-03-23T19:46:02;6.72;;;2.25;;
50319;SDS011;36226;53.464;9.852;2023-03-23T19:48:28;3.25;;;1.75;;
50319;SDS011;36226;53.464;9.852;2023-03-23T19:50:54;5.18;;;1.60;;
50319;SDS011;36226;53.464;9.852;2023-03-23T19:53:21;5.22;;;1.60;;
50319;SDS011;36226;53.464;9.852;2023-03-23T19:55:47;4.55;;;1.65;;
50319;SDS011;36226;53.464;9.852;2023-03-23T19:58:13;5.82;;;1.83;;
50319;SDS011;36226;53.464;9.852;2023-03-23T20:00:38;4.55;;;1.60;;
50319;SDS011;36226;53.464;9.852;2023-03-23T20:03:03;4.47;;;2.33;;
50319;SDS011;36226;53.464;9.852;2023-03-23T20:05:29;3.95;;;2.00;;
50319;SDS011;36226;53.464;9.852;2023-03-23T20:07:55;4.65;;;2.47;;
50319;SDS011;36226;53.464;9.852;2023-03-23T20:10:20;3.60;;;2.13;;
50319;SDS011;36226;53.464;9.852;2023-03-23T20:12:46;3.38;;;2.30;;
50319;SDS011;36226;53.464;9.852;2023-03-23T20:15:11;5.53;;;2.55;;
50319;SDS011;36226;53.464;9.852;2023-03-23T20:17:37;8.63;;;3.13;;